Main page
METAR-TAF:

METAR-TAF

Airports :

El Alto International Airport

La Paz, Bolivia

latitude: 16-31S, longitude: 068-11W, elevation: 4058 m

Current weather observation

The report was made 59 minutes ago, at 19:00 UTC
Wind 11 kt from the West with gusts up to 21 kt
Temperature 14°C
Humidity 18%
Pressure 1035 hPa
Visibility 10 km or more
Few clouds at a height of 2000 ft

METAR: SLLP 231900Z 28011G21KT 9999 FEW020 14/M10 Q1035

Time: 15:59 (19:59 UTC)

Forecast

The report was made 3 hours and 9 minutes ago, at 16:50 UTC
Forecast valid from 23 at 18 UTC to 24 at 18 UTC
Wind 10 kt from the Northwest
Visibility 10 km or more
Few clouds at a height of 2000 ft
Becoming
from 24 at 01 UTC to 24 at 03 UTC
Wind 2 kt from variable directions
Temporary
from 24 at 04 UTC to 24 at 08 UTC
Visibility: 4000 m
smoke

TAF: SLLP 231650Z 2318/2418 31010KT 9999 FEW020 TX15/2320Z TNM04/2410Z BECMG 2401/2403 VRB02KT TEMPO 2404/2408 4000 FU

Weather observations and forecasts of more than 4000 airports (METAR and TAF reports).

The available stations are represented by yellow and red dots on the map.

Hover mouse over dot to see the name of the station.

Then click to see weather observations and forecasts.

To change the map : click on the green buttons with a black cross to zoom in, on the green button with a dash to zoom out, or on the green arrows for adjacent maps.


METAR-TAF: